createdAt,value
2022-09-06T00:03:37.177Z,1.40
2022-09-06T00:08:41.165Z,1.38
2022-09-06T00:13:46.991Z,1.50
2022-09-06T00:18:51.108Z,1.65
2022-09-06T00:23:54.775Z,2.30
2022-09-06T00:28:59.685Z,1.80
2022-09-06T00:39:07.059Z,2.25
2022-09-06T00:44:12.109Z,2.05
2022-09-06T00:49:24.331Z,2.22
2022-09-06T00:54:28.552Z,2.25
2022-09-06T00:59:36.687Z,2.40
2022-09-06T01:04:41.778Z,2.92
2022-09-06T01:10:01.204Z,2.40
2022-09-06T01:15:18.765Z,2.65
2022-09-06T01:20:42.536Z,2.85
2022-09-06T01:25:59.667Z,3.15
2022-09-06T01:31:18.553Z,2.72
2022-09-06T01:36:25.638Z,3.40
2022-09-06T01:41:29.989Z,3.20
2022-09-06T01:46:42.017Z,3.35
2022-09-06T01:52:03.846Z,3.20
2022-09-06T01:57:23.175Z,3.22
2022-09-06T02:02:38.988Z,2.90
2022-09-06T02:07:45.990Z,2.60
2022-09-06T02:12:53.793Z,2.30
2022-09-06T02:18:03.746Z,2.20
2022-09-06T02:23:09.531Z,2.40
2022-09-06T02:28:13.239Z,2.45
2022-09-06T02:33:21.386Z,2.20
2022-09-06T02:38:28.046Z,2.08
2022-09-06T02:43:31.859Z,2.00
2022-09-06T02:48:36.957Z,1.90
2022-09-06T02:53:40.428Z,1.85
2022-09-06T02:58:43.964Z,2.10
2022-09-06T03:03:48.821Z,1.50
2022-09-06T03:13:55.664Z,1.30
2022-09-06T03:19:00.571Z,1.40
2022-09-06T03:29:07.441Z,1.00
2022-09-06T03:34:12.244Z,1.00
2022-09-06T03:44:20.117Z,1.10
2022-09-06T03:49:25.424Z,0.90
2022-09-06T03:54:29.245Z,1.40
2022-09-06T03:59:32.692Z,0.90
2022-09-06T04:04:37.959Z,0.98
2022-09-06T04:09:41.378Z,0.93
2022-09-06T04:14:44.795Z,0.90
2022-09-06T04:19:49.708Z,0.90
2022-09-06T04:29:56.711Z,0.98
2022-09-06T04:35:01.527Z,1.00
2022-09-06T04:40:08.049Z,1.00
2022-09-06T04:45:12.372Z,1.15
2022-09-06T04:50:17.214Z,1.27
2022-09-06T05:00:23.823Z,1.05
2022-09-06T05:05:28.688Z,1.10
2022-09-06T05:15:35.630Z,1.15
2022-09-06T05:20:40.644Z,1.33
2022-09-06T05:25:44.169Z,1.45
2022-09-06T05:30:48.645Z,1.70
2022-09-06T05:35:56.529Z,1.50
2022-09-06T05:41:00.054Z,1.70
2022-09-06T05:46:03.771Z,1.23
2022-09-06T05:51:12.562Z,1.17
2022-09-06T05:56:16.620Z,1.90
2022-09-06T06:01:22.073Z,1.20
2022-09-06T06:06:28.816Z,2.13
2022-09-06T06:11:32.816Z,1.00
2022-09-06T06:16:36.473Z,0.90
2022-09-06T06:21:41.506Z,1.10
2022-09-06T06:26:44.975Z,1.10
2022-09-06T06:31:48.468Z,1.20
2022-09-06T06:36:53.396Z,1.23
2022-09-06T06:47:02.164Z,1.20
2022-09-06T06:52:08.090Z,1.30
2022-09-06T06:57:12.753Z,1.20
2022-09-06T07:02:17.903Z,1.10
2022-09-06T07:07:30.704Z,1.20
2022-09-06T07:12:34.635Z,1.30
2022-09-06T07:17:38.948Z,1.13
2022-09-06T07:22:43.908Z,1.48
2022-09-06T07:27:48.493Z,1.13
2022-09-06T07:32:53.159Z,2.30
2022-09-06T07:38:00.772Z,1.52
2022-09-06T07:43:04.206Z,1.40
2022-09-06T07:48:08.150Z,1.35
2022-09-06T07:53:16.678Z,1.25
2022-09-06T07:58:25.621Z,1.30
2022-09-06T08:03:29.415Z,1.00
2022-09-06T08:13:59.230Z,1.20
2022-09-06T08:19:04.997Z,1.30
2022-09-06T08:24:11.375Z,1.27
2022-09-06T08:29:15.363Z,1.20
2022-09-06T08:34:19.203Z,1.20
2022-09-06T08:39:24.059Z,1.30
2022-09-06T08:49:58.371Z,1.70
2022-09-06T08:55:18.142Z,1.40
2022-09-06T09:00:23.291Z,1.50
2022-09-06T09:05:31.301Z,1.33
2022-09-06T09:10:48.771Z,1.40
2022-09-06T09:15:54.543Z,1.95
2022-09-06T09:20:59.650Z,1.23
2022-09-06T09:26:08.467Z,1.30
2022-09-06T09:31:14.483Z,1.50
2022-09-06T09:36:23.045Z,1.27
2022-09-06T09:41:30.928Z,1.30
2022-09-06T09:46:35.380Z,1.40
2022-09-06T09:51:40.227Z,1.63
2022-09-06T09:56:51.868Z,1.65
2022-09-06T10:01:57.647Z,1.70
2022-09-06T10:07:12.855Z,2.03
2022-09-06T10:12:30.543Z,2.22
2022-09-06T10:17:37.925Z,1.80
2022-09-06T10:22:53.910Z,1.80
2022-09-06T10:28:22.718Z,1.70
2022-09-06T10:33:34.514Z,1.55
2022-09-06T10:38:49.607Z,1.80
2022-09-06T10:44:05.808Z,1.70
2022-09-06T10:49:15.256Z,1.70
2022-09-06T10:54:22.864Z,1.60
2022-09-06T11:10:10.488Z,1.80
2022-09-06T11:15:17.892Z,1.50
2022-09-06T11:20:32.173Z,1.65
2022-09-06T11:26:01.531Z,1.48
2022-09-06T11:36:37.987Z,1.50
2022-09-06T11:41:43.653Z,1.63
2022-09-06T11:47:02.058Z,1.60
2022-09-06T11:52:38.420Z,2.13
2022-09-06T11:57:43.521Z,1.52
2022-09-06T12:02:48.513Z,1.40
2022-09-06T12:08:29.344Z,1.50
2022-09-06T12:13:48.740Z,1.85
2022-09-06T12:19:01.691Z,1.70
2022-09-06T12:24:08.074Z,1.75
2022-09-06T12:29:12.615Z,1.70
2022-09-06T12:34:23.211Z,1.80
2022-09-06T12:39:27.673Z,1.92
2022-09-06T12:49:39.898Z,1.92
2022-09-06T12:54:46.950Z,1.50
2022-09-06T12:59:55.980Z,1.67
2022-09-06T13:05:06.650Z,2.22
2022-09-06T13:10:14.085Z,1.65
2022-09-06T13:15:22.357Z,2.90
2022-09-06T13:20:30.556Z,2.30
2022-09-06T13:25:35.124Z,1.60
2022-09-06T13:30:44.321Z,1.83
2022-09-06T13:36:08.450Z,1.90
2022-09-06T13:41:47.564Z,2.00
2022-09-06T13:46:55.380Z,1.90
2022-09-06T13:52:03.309Z,1.83
2022-09-06T13:57:07.224Z,2.05
2022-09-06T14:02:15.319Z,1.97
2022-09-06T14:07:20.856Z,1.70
2022-09-06T14:12:24.831Z,1.45
2022-09-06T14:17:28.628Z,1.83
2022-09-06T14:22:33.706Z,1.40
2022-09-06T14:27:37.227Z,1.45
2022-09-06T14:32:42.319Z,1.17
2022-09-06T14:37:48.092Z,1.38
2022-09-06T14:42:51.688Z,1.20
2022-09-06T14:47:55.271Z,1.38
2022-09-06T14:53:01.547Z,1.40
2022-09-06T14:58:05.128Z,1.30
2022-09-06T15:03:08.845Z,1.40
2022-09-06T15:08:14.765Z,1.60
2022-09-06T15:13:18.435Z,1.60
2022-09-06T15:18:21.977Z,1.73
2022-09-06T15:23:28.551Z,1.63
2022-09-06T15:28:32.370Z,1.70
2022-09-06T15:33:37.576Z,1.40
2022-09-06T15:38:45.229Z,1.35
2022-09-06T15:43:51.039Z,1.40
2022-09-06T15:48:54.553Z,1.70
2022-09-06T15:54:00.556Z,1.50
2022-09-06T15:59:04.145Z,1.60
2022-09-06T16:04:08.492Z,1.67
2022-09-06T16:09:15.526Z,1.50
2022-09-06T16:14:20.013Z,1.40
2022-09-06T16:19:24.676Z,1.38
2022-09-06T16:24:31.122Z,1.35
2022-09-06T16:29:35.610Z,1.80
2022-09-06T16:34:41.139Z,1.50
2022-09-06T16:39:46.435Z,2.00
2022-09-06T16:44:50.199Z,1.98
2022-09-06T16:49:54.369Z,2.00
2022-09-06T16:55:00.642Z,2.55
2022-09-06T17:00:05.827Z,2.25
2022-09-06T17:05:10.535Z,2.30
2022-09-06T17:10:17.726Z,2.55
2022-09-06T17:15:21.712Z,2.30
2022-09-06T17:20:25.370Z,2.30
2022-09-06T17:25:33.398Z,2.15
2022-09-06T17:30:41.240Z,2.10
2022-09-06T17:35:45.594Z,2.28
2022-09-06T17:41:00.234Z,2.08
2022-09-06T17:46:05.424Z,2.10
2022-09-06T17:51:09.921Z,2.10
2022-09-06T17:56:18.101Z,2.15
2022-09-06T18:01:22.057Z,2.00
2022-09-06T18:06:27.271Z,2.20
2022-09-06T18:11:36.611Z,2.05
2022-09-06T18:16:41.692Z,2.30
2022-09-06T18:21:45.945Z,2.70
2022-09-06T18:26:50.869Z,2.67
2022-09-06T18:31:55.113Z,2.97
2022-09-06T18:37:01.085Z,2.40
2022-09-06T18:42:11.588Z,2.35
2022-09-06T18:47:16.691Z,2.42
2022-09-06T18:52:22.700Z,2.90
2022-09-06T18:57:28.811Z,2.55
2022-09-06T19:02:32.522Z,2.80
2022-09-06T19:07:36.646Z,3.07
2022-09-06T19:12:41.650Z,3.30
2022-09-06T19:17:45.106Z,3.05
2022-09-06T19:22:50.854Z,2.92
2022-09-06T19:27:55.803Z,2.70
2022-09-06T19:33:01.264Z,3.08
2022-09-06T19:38:05.184Z,2.97
2022-09-06T19:43:10.170Z,2.53
2022-09-06T19:48:13.697Z,2.70
2022-09-06T19:53:17.183Z,2.28
2022-09-06T19:58:22.115Z,2.30
2022-09-06T20:08:30.906Z,2.38
2022-09-06T20:13:36.938Z,2.27
2022-09-06T20:18:40.856Z,2.30
2022-09-06T20:23:44.359Z,2.23
2022-09-06T20:28:49.251Z,2.47
2022-09-06T20:33:53.472Z,2.40
2022-09-06T20:38:57.113Z,3.03
2022-09-06T20:44:02.171Z,2.65
2022-09-06T20:49:06.820Z,2.33
2022-09-06T20:54:11.784Z,2.78
2022-09-06T21:04:19.859Z,2.60
2022-09-06T21:09:24.339Z,2.65
2022-09-06T21:14:29.351Z,2.55
2022-09-06T21:19:32.845Z,2.70
2022-09-06T21:24:36.364Z,2.75
2022-09-06T21:29:41.232Z,2.53
2022-09-06T21:39:49.341Z,2.70
2022-09-06T21:44:54.312Z,2.63
2022-09-06T21:49:58.068Z,2.58
2022-09-06T21:55:01.593Z,2.35
2022-09-06T22:00:09.691Z,2.78
2022-09-06T22:05:13.237Z,2.70
2022-09-06T22:10:16.927Z,2.67
2022-09-06T22:15:22.320Z,2.58
2022-09-06T22:20:25.808Z,2.58
2022-09-06T22:25:29.286Z,2.58
2022-09-06T22:30:34.177Z,2.83
2022-09-06T22:40:40.779Z,2.65
2022-09-06T22:45:49.828Z,2.40
2022-09-06T22:50:57.373Z,2.60
2022-09-06T22:56:01.678Z,2.55
2022-09-06T23:01:12.392Z,2.45
2022-09-06T23:06:16.169Z,2.55
2022-09-06T23:11:21.035Z,2.63
2022-09-06T23:16:27.245Z,2.45
2022-09-06T23:21:30.853Z,2.50
2022-09-06T23:26:34.706Z,2.85
2022-09-06T23:31:39.963Z,2.78
2022-09-06T23:36:45.723Z,2.30
2022-09-06T23:41:49.188Z,2.50
2022-09-06T23:46:54.181Z,2.50
2022-09-06T23:51:59.297Z,2.35
2022-09-06T23:57:02.878Z,2.50
